Terminal Aerodrome Forecast
Issued by NWS

Home | Current Version | Previous Version | Text Only | Print | Product List | Glossary On
Versions: 1 2 3 4 5 6 7 8 9 10 11 12 13 14 15 16 17 18 19 20 21 22
828
FTUS43 KILX 230932 AAA
TAFCMI
TAF AMD
KCMI 230932Z 2310/2406 VRB03KT P6SM SKC
     FM231100 VRB03KT 4SM BR SCT015 BKN250
      TEMPO 2311/2313 2SM BR BKN015
     FM231300 19007KT P6SM SCT035 BKN250
     FM232200 18006KT P6SM BKN250=

USA.gov is the U.S. government's official web portal to all federal, state and local government web resources and services.